Alta Loma, Texas
Current Conditions -  °F | °C
As of 7:52 AM on Tuesday 27 Jan 2015 (Local Time) from KGLS Reporting Station
Clear Clear  
Wind Chill: 53°   Ceiling: Unl
Heat Index: 53°   Visibility: 10mi
Dew Point: 44°   Wind: 8mph
Humidity: 71%   Direction: 270°W
Pressure: 30.16"   Gusts: NA
Location:  29.359°N, 95.0861°W
Report Text: KGLS 271352Z 27007KT 10SM CLR 12/07 A3016 RMK AO2 SLP213 T01170067
Loading
Personal Weather Stations






























Interactive Weather Map New forecast layout! Learn more

10-Day Weather Forecast

Advertisements
Track Severe Weather on mobile